KLBO

Details ICAO KLBO
Name FLOYD W JONES LEBANON
Region United States
Timezone America/Chicago (UTC-5.0)
Plans Departing 9
Arriving 11
Stats Elevation 1,321 ft / 403 m (AMSL)
Location 37.646539° -92.654548°
Runways 2
Magnetic Variation 0.316° E
Sunrise 2018-05-23 10:56:38 UTC / 2018-05-23 05:56:38 Local
Sunset 2018-05-24 01:21:00 UTC / 2018-05-23 20:21:00 Local
Advertisement - Login to hide

Runways

ID Width Length Bearing (true) Bearing (mag) Surface Threshold Offset Overrun Length
09 50 ft / 15 m 2,295 ft / 700 m 91.04° 90.72° Asphalt 0 ft / 0 m 80 ft / 24 m
18 75 ft / 23 m 5,011 ft / 1,527 m 181.69° 181.37° Asphalt 0 ft / 0 m 0 ft / 0 m
27 50 ft / 15 m 2,295 ft / 700 m 271.04° 270.72° Asphalt 0 ft / 0 m 80 ft / 24 m
36 75 ft / 23 m 5,011 ft / 1,527 m 1.69° 1.37° Asphalt 0 ft / 0 m 0 ft / 0 m

Map

Weather


0- 5 10 15 20 25 30 35+ Temperature / ° C

Clouds and Precipitation
Forecast for 2018-05-24 00:00 UTC. Updated 2 hours ago

Ground ~20,000 ft ~40,000 ft Winds

METAR

KLBO 240055Z AUTO 20005KT 10SM CLR 22/18 A3013 RMK AO2

TAF

Not found

Frequencies

Recorded 118.97 MHz AWOS 3
Approach 121.10 MHz SPRINGFIELD APP/DEP
Unicom 122.80 MHz CTAF/UNICOM
Warning: Do not use this data for real-world aviation or navigation. No guarantee of current accuracy is given.